< Typhoon 196007 1960 Season Typhoon 196009 >
Typhoon 196008 (SHIRLEY)
General InformationTrack Information on Google Maps || Disaster Info.ResourceGoogle EarthGE AnimationAtom FeedGeoJSON
Detalied Best Track (Time Zone = UTC)
Year Month Day Hour Lat. Long. Pressure (hPa) Wind (kt) Class Image Chart
1960 7 27 18 12.7 134.0 1006 0 2 -- Chart
1960 7 28 00 13.7 130.9 1006 0 2 -- Chart
1960 7 28 06 14.9 129.6 1004 0 2 -- Chart
1960 7 28 12 16.1 128.6 1004 0 2 -- Chart
1960 7 28 18 17.0 128.0 1004 0 2 -- Chart
1960 7 29 00 17.8 127.4 1002 0 2 -- Chart
1960 7 29 06 18.6 127.0 1000 0 2 -- Chart
1960 7 29 12 19.6 126.4 998 0 2 -- Chart
1960 7 29 18 20.4 126.0 990 0 9 -- Chart
1960 7 30 00 21.2 125.7 985 0 9 -- Chart
1960 7 30 06 21.8 125.0 970 0 9 -- Chart
1960 7 30 12 22.1 124.6 920 0 9 -- Chart
1960 7 30 18 22.9 123.9 920 0 9 -- Chart
1960 7 31 00 23.6 123.4 910 0 9 -- Chart
1960 7 31 06 24.3 122.5 910 0 9 -- Chart
1960 7 31 12 24.4 121.7 930 0 9 -- Chart
1960 7 31 18 24.7 121.0 950 0 9 -- Chart
1960 8 1 00 25.1 120.5 960 0 9 -- Chart
1960 8 1 06 25.5 120.0 970 0 9 -- Chart
1960 8 1 12 25.9 119.5 975 0 9 -- Chart
1960 8 1 18 27.0 119.2 985 0 9 -- Chart
1960 8 2 00 28.0 119.0 990 0 9 -- Chart
1960 8 2 06 30.5 118.0 994 0 9 -- Chart
1960 8 2 12 31.2 117.2 996 0 2 -- Chart
1960 8 2 18 32.0 117.0 996 0 2 -- Chart
1960 8 3 00 32.5 116.9 996 0 2 -- Chart
1960 8 3 06 33.3 117.2 996 0 2 -- Chart
1960 8 3 12 34.0 118.0 996 0 2 -- Chart
1960 8 3 18 34.5 118.8 996 0 2 -- Chart
1960 8 4 00 35.0 119.8 996 0 2 -- Chart
1960 8 4 06 35.2 120.2 996 0 2 -- Chart
1960 8 4 12 35.5 120.5 994 0 2 -- Chart
1960 8 4 18 36.0 121.0 994 0 2 -- Chart
1960 8 5 00 36.5 121.0 994 0 2 -- Chart
1960 8 5 06 37.2 120.7 994 0 2 -- Chart
1960 8 5 12 37.8 120.2 998 0 2 -- Chart
1960 8 5 18 38.1 120.1 1000 0 2 -- Chart
1960 8 6 00 38.8 118.9 1002 0 2 -- Chart
1960 8 6 06 39.0 118.0 1003 0 2 -- Chart
Japan Meteorological Agency Best Track Data | Correction Date : 1989-06-01
< Typhoon 196007 1960 Season Typhoon 196009 >

Help